sensor_id;sensor_type;location;lat;lon;timestamp;pressure;altitude;pressure_sealevel;temperature;humidity
40171;BME280;37650;52.790;18.268;2023-04-08T00:01:58;101045.75;;;5.72;100.00
40171;BME280;37650;52.790;18.268;2023-04-08T00:05:19;101050.83;;;5.67;100.00
40171;BME280;37650;52.790;18.268;2023-04-08T00:08:41;101055.23;;;5.59;100.00
40171;BME280;37650;52.790;18.268;2023-04-08T00:12:01;101052.50;;;5.48;100.00
40171;BME280;37650;52.790;18.268;2023-04-08T00:15:23;101053.95;;;5.41;100.00
40171;BME280;37650;52.790;18.268;2023-04-08T00:18:44;101057.80;;;5.35;100.00
40171;BME280;37650;52.790;18.268;2023-04-08T00:22:05;101063.38;;;5.31;100.00
40171;BME280;37650;52.790;18.268;2023-04-08T00:25:26;101065.86;;;5.24;100.00
40171;BME280;37650;52.790;18.268;2023-04-08T00:28:48;101069.01;;;5.19;100.00
40171;BME280;37650;52.790;18.268;2023-04-08T00:32:09;101071.98;;;5.15;100.00
40171;BME280;37650;52.790;18.268;2023-04-08T00:35:30;101075.83;;;5.11;100.00
40171;BME280;37650;52.790;18.268;2023-04-08T00:38:51;101076.35;;;5.09;100.00
40171;BME280;37650;52.790;18.268;2023-04-08T00:42:13;101077.06;;;5.04;100.00
40171;BME280;37650;52.790;18.268;2023-04-08T00:45:34;101074.81;;;4.98;100.00
40171;BME280;37650;52.790;18.268;2023-04-08T00:48:55;101081.79;;;4.96;100.00
40171;BME280;37650;52.790;18.268;2023-04-08T00:52:16;101085.97;;;4.91;100.00
40171;BME280;37650;52.790;18.268;2023-04-08T00:55:38;101088.77;;;4.89;100.00
40171;BME280;37650;52.790;18.268;2023-04-08T00:59:00;101088.76;;;4.89;100.00
40171;BME280;37650;52.790;18.268;2023-04-08T01:09:52;101094.35;;;4.79;100.00
40171;BME280;37650;52.790;18.268;2023-04-08T01:13:16;101101.30;;;4.76;100.00
40171;BME280;37650;52.790;18.268;2023-04-08T01:16:40;101103.57;;;4.73;100.00
40171;BME280;37650;52.790;18.268;2023-04-08T01:20:03;101107.56;;;4.73;100.00
40171;BME280;37650;52.790;18.268;2023-04-08T01:27:21;101110.35;;;4.66;100.00
40171;BME280;37650;52.790;18.268;2023-04-08T01:30:43;101108.10;;;4.62;100.00
40171;BME280;37650;52.790;18.268;2023-04-08T01:34:05;101107.58;;;4.59;100.00
40171;BME280;37650;52.790;18.268;2023-04-08T01:37:28;101111.05;;;4.59;100.00
40171;BME280;37650;52.790;18.268;2023-04-08T01:40:51;101106.02;;;4.63;100.00
40171;BME280;37650;52.790;18.268;2023-04-08T01:44:13;101105.84;;;4.66;100.00
40171;BME280;37650;52.790;18.268;2023-04-08T01:47:36;101108.80;;;4.64;100.00
40171;BME280;37650;52.790;18.268;2023-04-08T01:50:59;101110.20;;;4.63;100.00
40171;BME280;37650;52.790;18.268;2023-04-08T01:54:20;101107.92;;;4.60;100.00
40171;BME280;37650;52.790;18.268;2023-04-08T01:57:46;101112.46;;;4.53;100.00
40171;BME280;37650;52.790;18.268;2023-04-08T02:01:11;101114.36;;;4.50;100.00
40171;BME280;37650;52.790;18.268;2023-04-08T02:04:34;101117.67;;;4.49;100.00
40171;BME280;37650;52.790;18.268;2023-04-08T02:07:56;101120.45;;;4.46;100.00
40171;BME280;37650;52.790;18.268;2023-04-08T02:11:17;101124.80;;;4.37;100.00
40171;BME280;37650;52.790;18.268;2023-04-08T02:14:38;101127.74;;;4.26;100.00
40171;BME280;37650;52.790;18.268;2023-04-08T02:18:10;101134.15;;;4.13;100.00
40171;BME280;37650;52.790;18.268;2023-04-08T02:21:40;101139.88;;;4.08;100.00
40171;BME280;37650;52.790;18.268;2023-04-08T02:25:08;101139.71;;;4.07;100.00
40171;BME280;37650;52.790;18.268;2023-04-08T02:28:32;101147.52;;;4.09;100.00
40171;BME280;37650;52.790;18.268;2023-04-08T02:31:55;101153.95;;;4.09;100.00
40171;BME280;37650;52.790;18.268;2023-04-08T02:35:17;101157.77;;;4.08;100.00
40171;BME280;37650;52.790;18.268;2023-04-08T02:38:38;101160.19;;;4.04;100.00
40171;BME280;37650;52.790;18.268;2023-04-08T02:41:59;101174.23;;;3.99;100.00
40171;BME280;37650;52.790;18.268;2023-04-08T02:45:21;101173.70;;;3.91;100.00
40171;BME280;37650;52.790;18.268;2023-04-08T02:48:43;101178.55;;;3.90;100.00
40171;BME280;37650;52.790;18.268;2023-04-08T02:52:05;101178.73;;;3.90;100.00
40171;BME280;37650;52.790;18.268;2023-04-08T02:55:26;101180.47;;;3.93;100.00
40171;BME280;37650;52.790;18.268;2023-04-08T02:58:47;101183.45;;;3.97;100.00
40171;BME280;37650;52.790;18.268;2023-04-08T03:02:08;101180.51;;;4.00;100.00
40171;BME280;37650;52.790;18.268;2023-04-08T03:05:30;101182.92;;;4.00;100.00
40171;BME280;37650;52.790;18.268;2023-04-08T03:08:50;101186.22;;;3.98;100.00
40171;BME280;37650;52.790;18.268;2023-04-08T03:12:12;101194.72;;;3.98;100.00
40171;BME280;37650;52.790;18.268;2023-04-08T03:15:33;101196.45;;;3.98;100.00
40171;BME280;37650;52.790;18.268;2023-04-08T03:18:54;101197.16;;;3.99;100.00
40171;BME280;37650;52.790;18.268;2023-04-08T03:22:15;101196.98;;;4.02;100.00
40171;BME280;37650;52.790;18.268;2023-04-08T03:25:36;101201.70;;;4.05;100.00
40171;BME280;37650;52.790;18.268;2023-04-08T03:28:58;101199.77;;;4.06;100.00
40171;BME280;37650;52.790;18.268;2023-04-08T03:32:19;101202.39;;;4.11;100.00
40171;BME280;37650;52.790;18.268;2023-04-08T03:35:40;101203.79;;;4.16;100.00
40171;BME280;37650;52.790;18.268;2023-04-08T03:39:01;101202.77;;;4.21;100.00
40171;BME280;37650;52.790;18.268;2023-04-08T03:42:23;101205.39;;;4.25;100.00
40171;BME280;37650;52.790;18.268;2023-04-08T03:45:45;101201.73;;;4.30;100.00
40171;BME280;37650;52.790;18.268;2023-04-08T03:49:06;101207.83;;;4.31;100.00
40171;BME280;37650;52.790;18.268;2023-04-08T03:52:27;101211.64;;;4.28;100.00
40171;BME280;37650;52.790;18.268;2023-04-08T03:55:48;101219.08;;;4.19;100.00
40171;BME280;37650;52.790;18.268;2023-04-08T03:59:12;101219.08;;;4.14;100.00
40171;BME280;37650;52.790;18.268;2023-04-08T04:02:33;101224.78;;;4.10;100.00
40171;BME280;37650;52.790;18.268;2023-04-08T04:05:55;101220.10;;;4.05;100.00
40171;BME280;37650;52.790;18.268;2023-04-08T04:09:16;101223.89;;;4.01;100.00
40171;BME280;37650;52.790;18.268;2023-04-08T04:12:38;101223.17;;;3.94;100.00
40171;BME280;37650;52.790;18.268;2023-04-08T04:15:59;101226.81;;;3.93;100.00
40171;BME280;37650;52.790;18.268;2023-04-08T04:19:20;101229.61;;;3.94;100.00
40171;BME280;37650;52.790;18.268;2023-04-08T04:22:41;101229.27;;;3.99;100.00
40171;BME280;37650;52.790;18.268;2023-04-08T04:26:08;101233.80;;;4.04;100.00
40171;BME280;37650;52.790;18.268;2023-04-08T04:29:30;101239.72;;;4.05;100.00
40171;BME280;37650;52.790;18.268;2023-04-08T04:32:52;101247.34;;;4.07;100.00
40171;BME280;37650;52.790;18.268;2023-04-08T04:36:14;101250.84;;;4.12;100.00
40171;BME280;37650;52.790;18.268;2023-04-08T04:39:35;101253.99;;;4.19;100.00
40171;BME280;37650;52.790;18.268;2023-04-08T04:42:57;101257.65;;;4.24;100.00
40171;BME280;37650;52.790;18.268;2023-04-08T04:46:18;101261.83;;;4.30;100.00
40171;BME280;37650;52.790;18.268;2023-04-08T04:49:39;101264.80;;;4.35;100.00
40171;BME280;37650;52.790;18.268;2023-04-08T04:53:00;101262.73;;;4.36;100.00
40171;BME280;37650;52.790;18.268;2023-04-08T04:56:21;101265.49;;;4.39;100.00
40171;BME280;37650;52.790;18.268;2023-04-08T04:59:42;101270.73;;;4.42;100.00
40171;BME280;37650;52.790;18.268;2023-04-08T05:03:03;101271.27;;;4.49;100.00
40171;BME280;37650;52.790;18.268;2023-04-08T05:06:24;101281.00;;;4.57;100.00
40171;BME280;37650;52.790;18.268;2023-04-08T05:09:46;101282.58;;;4.62;100.00
40171;BME280;37650;52.790;18.268;2023-04-08T05:13:07;101286.76;;;4.66;100.00
40171;BME280;37650;52.790;18.268;2023-04-08T05:16:29;101282.26;;;4.80;100.00
40171;BME280;37650;52.790;18.268;2023-04-08T05:20:15;101287.65;;;4.96;100.00
40171;BME280;37650;52.790;18.268;2023-04-08T05:23:37;101292.00;;;5.15;100.00
40171;BME280;37650;52.790;18.268;2023-04-08T05:26:59;101291.47;;;5.33;100.00
40171;BME280;37650;52.790;18.268;2023-04-08T05:30:21;101296.14;;;5.44;100.00
40171;BME280;37650;52.790;18.268;2023-04-08T05:33:42;101299.42;;;5.57;100.00
40171;BME280;37650;52.790;18.268;2023-04-08T05:37:04;101302.53;;;5.70;100.00
40171;BME280;37650;52.790;18.268;2023-04-08T05:40:25;101303.73;;;5.90;100.00
40171;BME280;37650;52.790;18.268;2023-04-08T05:43:46;101304.70;;;6.07;100.00
40171;BME280;37650;52.790;18.268;2023-04-08T05:47:08;101307.47;;;6.14;100.00
40171;BME280;37650;52.790;18.268;2023-04-08T05:50:30;101310.44;;;6.48;100.00
40171;BME280;37650;52.790;18.268;2023-04-08T05:53:51;101310.23;;;7.26;100.00
40171;BME280;37650;52.790;18.268;2023-04-08T05:57:12;101311.74;;;7.68;100.00
40171;BME280;37650;52.790;18.268;2023-04-08T06:05:12;101320.88;;;8.25;100.00
40171;BME280;37650;52.790;18.268;2023-04-08T06:08:34;101326.24;;;8.15;100.00
40171;BME280;37650;52.790;18.268;2023-04-08T06:11:55;101332.16;;;8.46;100.00
40171;BME280;37650;52.790;18.268;2023-04-08T06:15:17;101333.25;;;8.82;100.00
40171;BME280;37650;52.790;18.268;2023-04-08T06:18:38;101335.56;;;8.38;100.00
40171;BME280;37650;52.790;18.268;2023-04-08T06:21:59;101338.52;;;7.44;100.00
40171;BME280;37650;52.790;18.268;2023-04-08T06:25:21;101343.81;;;6.92;100.00
40171;BME280;37650;52.790;18.268;2023-04-08T06:28:42;101346.88;;;6.77;100.00
40171;BME280;37650;52.790;18.268;2023-04-08T06:32:03;101352.58;;;6.55;100.00
40171;BME280;37650;52.790;18.268;2023-04-08T06:35:25;101357.34;;;6.44;100.00
40171;BME280;37650;52.790;18.268;2023-04-08T06:38:47;101362.92;;;6.42;100.00
40171;BME280;37650;52.790;18.268;2023-04-08T06:42:07;101365.86;;;6.51;100.00
40171;BME280;37650;52.790;18.268;2023-04-08T06:45:46;101367.17;;;6.66;100.00
40171;BME280;37650;52.790;18.268;2023-04-08T06:49:11;101371.83;;;6.77;100.00
40171;BME280;37650;52.790;18.268;2023-04-08T06:52:33;101374.10;;;6.74;100.00
40171;BME280;37650;52.790;18.268;2023-04-08T06:55:54;101382.66;;;6.74;100.00
40171;BME280;37650;52.790;18.268;2023-04-08T06:59:15;101379.14;;;6.78;100.00
40171;BME280;37650;52.790;18.268;2023-04-08T07:02:37;101384.04;;;6.72;100.00
40171;BME280;37650;52.790;18.268;2023-04-08T07:06:04;101384.23;;;6.69;100.00
40171;BME280;37650;52.790;18.268;2023-04-08T07:09:29;101387.66;;;6.80;100.00
40171;BME280;37650;52.790;18.268;2023-04-08T07:12:50;101392.37;;;6.83;100.00
40171;BME280;37650;52.790;18.268;2023-04-08T07:16:12;101396.38;;;6.81;100.00
40171;BME280;37650;52.790;18.268;2023-04-08T07:19:34;101398.74;;;6.61;100.00
40171;BME280;37650;52.790;18.268;2023-04-08T07:22:56;101400.70;;;6.52;100.00
40171;BME280;37650;52.790;18.268;2023-04-08T07:26:17;101406.80;;;6.53;100.00
40171;BME280;37650;52.790;18.268;2023-04-08T07:29:38;101412.89;;;6.57;100.00
40171;BME280;37650;52.790;18.268;2023-04-08T07:32:59;101417.08;;;6.54;100.00
40171;BME280;37650;52.790;18.268;2023-04-08T07:36:20;101417.27;;;6.50;100.00
40171;BME280;37650;52.790;18.268;2023-04-08T07:39:41;101420.95;;;6.44;100.00
40171;BME280;37650;52.790;18.268;2023-04-08T07:43:03;101423.38;;;6.51;100.00
40171;BME280;37650;52.790;18.268;2023-04-08T07:46:24;101425.88;;;6.75;100.00
40171;BME280;37650;52.790;18.268;2023-04-08T07:49:45;101428.77;;;6.94;100.00
40171;BME280;37650;52.790;18.268;2023-04-08T07:53:07;101433.84;;;6.86;100.00
40171;BME280;37650;52.790;18.268;2023-04-08T07:56:29;101432.09;;;6.89;100.00
40171;BME280;37650;52.790;18.268;2023-04-08T07:59:51;101435.51;;;7.04;100.00
40171;BME280;37650;52.790;18.268;2023-04-08T08:03:12;101437.99;;;7.24;100.00
40171;BME280;37650;52.790;18.268;2023-04-08T08:06:34;101446.73;;;7.47;100.00
40171;BME280;37650;52.790;18.268;2023-04-08T08:09:55;101447.91;;;7.74;100.00
40171;BME280;37650;52.790;18.268;2023-04-08T08:13:16;101450.96;;;7.86;100.00
40171;BME280;37650;52.790;18.268;2023-04-08T08:16:41;101454.11;;;7.84;100.00
40171;BME280;37650;52.790;18.268;2023-04-08T08:20:02;101452.16;;;7.88;100.00
40171;BME280;37650;52.790;18.268;2023-04-08T08:23:24;101455.90;;;7.80;100.00
40171;BME280;37650;52.790;18.268;2023-04-08T08:26:45;101457.33;;;7.76;100.00
40171;BME280;37650;52.790;18.268;2023-04-08T08:30:09;101456.02;;;7.87;100.00
40171;BME280;37650;52.790;18.268;2023-04-08T08:33:31;101455.09;;;8.11;100.00
40171;BME280;37650;52.790;18.268;2023-04-08T08:36:53;101452.07;;;8.34;100.00
40171;BME280;37650;52.790;18.268;2023-04-08T08:40:17;101453.92;;;8.84;100.00
40171;BME280;37650;52.790;18.268;2023-04-08T08:43:38;101457.91;;;9.14;100.00
40171;BME280;37650;52.790;18.268;2023-04-08T08:47:00;101462.69;;;9.23;100.00
40171;BME280;37650;52.790;18.268;2023-04-08T08:50:21;101460.16;;;9.51;100.00
40171;BME280;37650;52.790;18.268;2023-04-08T08:53:42;101456.61;;;10.71;100.00
40171;BME280;37650;52.790;18.268;2023-04-08T08:57:16;101452.04;;;11.58;100.00
40171;BME280;37650;52.790;18.268;2023-04-08T09:00:40;101447.78;;;12.08;99.46
40171;BME280;37650;52.790;18.268;2023-04-08T09:04:19;101446.08;;;12.70;97.28
40171;BME280;37650;52.790;18.268;2023-04-08T09:07:42;101450.92;;;13.08;91.96
40171;BME280;37650;52.790;18.268;2023-04-08T09:14:35;101454.50;;;13.13;92.49
40171;BME280;37650;52.790;18.268;2023-04-08T09:17:56;101451.73;;;13.93;94.06
40171;BME280;37650;52.790;18.268;2023-04-08T09:21:21;101452.89;;;14.51;88.21
40171;BME280;37650;52.790;18.268;2023-04-08T09:24:44;101459.45;;;15.11;85.17
40171;BME280;37650;52.790;18.268;2023-04-08T09:28:18;101460.17;;;15.20;78.59
40171;BME280;37650;52.790;18.268;2023-04-08T09:31:40;101457.38;;;15.10;78.24
40171;BME280;37650;52.790;18.268;2023-04-08T09:35:02;101454.15;;;15.61;79.64
40171;BME280;37650;52.790;18.268;2023-04-08T09:38:23;101459.26;;;15.75;76.90
40171;BME280;37650;52.790;18.268;2023-04-08T09:41:47;101459.46;;;15.86;77.97
40171;BME280;37650;52.790;18.268;2023-04-08T09:45:11;101456.05;;;16.00;75.55
40171;BME280;37650;52.790;18.268;2023-04-08T09:48:39;101458.69;;;16.00;70.72
40171;BME280;37650;52.790;18.268;2023-04-08T09:52:10;101456.46;;;15.99;72.39
40171;BME280;37650;52.790;18.268;2023-04-08T09:55:33;101459.64;;;16.76;73.52
40171;BME280;37650;52.790;18.268;2023-04-08T09:58:58;101457.34;;;17.28;69.01
40171;BME280;37650;52.790;18.268;2023-04-08T10:02:28;101452.70;;;17.90;67.45
40171;BME280;37650;52.790;18.268;2023-04-08T10:05:53;101450.98;;;18.00;60.27
40171;BME280;37650;52.790;18.268;2023-04-08T10:09:14;101454.50;;;17.32;60.08
40171;BME280;37650;52.790;18.268;2023-04-08T10:12:36;101451.05;;;17.34;59.22
40171;BME280;37650;52.790;18.268;2023-04-08T10:19:41;101449.41;;;17.78;61.33
40171;BME280;37650;52.790;18.268;2023-04-08T10:23:11;101440.58;;;18.22;62.55
40171;BME280;37650;52.790;18.268;2023-04-08T10:26:37;101440.55;;;18.46;58.95
40171;BME280;37650;52.790;18.268;2023-04-08T10:29:59;101442.26;;;18.68;59.94
40171;BME280;37650;52.790;18.268;2023-04-08T10:33:23;101439.92;;;19.07;57.45
40171;BME280;37650;52.790;18.268;2023-04-08T10:36:46;101438.36;;;19.60;55.24
40171;BME280;37650;52.790;18.268;2023-04-08T10:40:18;101433.85;;;19.39;53.84
40171;BME280;37650;52.790;18.268;2023-04-08T10:43:42;101434.56;;;19.52;53.62
40171;BME280;37650;52.790;18.268;2023-04-08T10:47:07;101434.47;;;19.56;53.17
40171;BME280;37650;52.790;18.268;2023-04-08T10:50:29;101435.95;;;19.18;52.72
40171;BME280;37650;52.790;18.268;2023-04-08T10:54:13;101430.08;;;18.83;53.33
40171;BME280;37650;52.790;18.268;2023-04-08T10:57:36;101428.80;;;19.15;54.16
40171;BME280;37650;52.790;18.268;2023-04-08T11:01:10;101428.27;;;19.56;52.45
40171;BME280;37650;52.790;18.268;2023-04-08T11:04:31;101430.01;;;19.90;53.82
40171;BME280;37650;52.790;18.268;2023-04-08T11:07:52;101430.16;;;20.17;53.06
40171;BME280;37650;52.790;18.268;2023-04-08T11:11:14;101431.17;;;20.30;50.15
40171;BME280;37650;52.790;18.268;2023-04-08T11:14:36;101432.63;;;19.60;49.55
40171;BME280;37650;52.790;18.268;2023-04-08T11:17:57;101433.83;;;19.49;48.73
40171;BME280;37650;52.790;18.268;2023-04-08T11:21:19;101435.38;;;18.73;47.80
40171;BME280;37650;52.790;18.268;2023-04-08T11:24:42;101434.91;;;18.66;50.18
40171;BME280;37650;52.790;18.268;2023-04-08T11:28:06;101433.92;;;18.44;49.97
40171;BME280;37650;52.790;18.268;2023-04-08T11:31:28;101434.23;;;18.45;52.03
40171;BME280;37650;52.790;18.268;2023-04-08T11:34:48;101438.80;;;18.53;51.74
40171;BME280;37650;52.790;18.268;2023-04-08T11:38:10;101433.50;;;18.11;50.14
40171;BME280;37650;52.790;18.268;2023-04-08T11:41:34;101436.72;;;17.51;51.67
40171;BME280;37650;52.790;18.268;2023-04-08T11:44:56;101441.94;;;17.39;51.93
40171;BME280;37650;52.790;18.268;2023-04-08T11:48:18;101441.32;;;17.18;51.95
40171;BME280;37650;52.790;18.268;2023-04-08T11:51:54;101440.05;;;17.08;52.84
40171;BME280;37650;52.790;18.268;2023-04-08T11:55:28;101442.31;;;17.46;54.25
40171;BME280;37650;52.790;18.268;2023-04-08T11:58:50;101439.20;;;17.44;51.97
40171;BME280;37650;52.790;18.268;2023-04-08T12:02:11;101438.60;;;17.53;53.42
40171;BME280;37650;52.790;18.268;2023-04-08T12:05:32;101434.64;;;17.47;52.83
40171;BME280;37650;52.790;18.268;2023-04-08T12:08:55;101433.80;;;17.49;53.94
40171;BME280;37650;52.790;18.268;2023-04-08T12:12:16;101429.41;;;17.81;55.04
40171;BME280;37650;52.790;18.268;2023-04-08T12:15:38;101428.98;;;18.06;53.50
40171;BME280;37650;52.790;18.268;2023-04-08T12:18:59;101436.15;;;17.66;51.78
40171;BME280;37650;52.790;18.268;2023-04-08T12:22:20;101432.64;;;17.58;52.58
40171;BME280;37650;52.790;18.268;2023-04-08T12:25:41;101428.71;;;17.45;53.74
40171;BME280;37650;52.790;18.268;2023-04-08T12:29:03;101425.31;;;17.74;54.84
40171;BME280;37650;52.790;18.268;2023-04-08T12:32:24;101419.48;;;18.32;54.63
40171;BME280;37650;52.790;18.268;2023-04-08T12:35:45;101417.61;;;18.27;52.83
40171;BME280;37650;52.790;18.268;2023-04-08T12:39:06;101420.17;;;18.05;51.57
40171;BME280;37650;52.790;18.268;2023-04-08T12:42:28;101424.14;;;17.80;52.27
40171;BME280;37650;52.790;18.268;2023-04-08T12:45:50;101423.98;;;17.76;52.22
40171;BME280;37650;52.790;18.268;2023-04-08T12:49:11;101419.80;;;17.67;52.34
40171;BME280;37650;52.790;18.268;2023-04-08T12:52:33;101418.19;;;17.68;52.64
40171;BME280;37650;52.790;18.268;2023-04-08T12:55:53;101415.55;;;17.45;51.17
40171;BME280;37650;52.790;18.268;2023-04-08T12:59:17;101416.86;;;17.04;51.33
40171;BME280;37650;52.790;18.268;2023-04-08T13:02:39;101415.36;;;17.28;53.58
40171;BME280;37650;52.790;18.268;2023-04-08T13:06:02;101417.09;;;17.39;51.34
40171;BME280;37650;52.790;18.268;2023-04-08T13:09:23;101411.77;;;16.76;51.76
40171;BME280;37650;52.790;18.268;2023-04-08T13:12:44;101413.33;;;16.49;53.02
40171;BME280;37650;52.790;18.268;2023-04-08T13:16:06;101410.11;;;16.54;53.76
40171;BME280;37650;52.790;18.268;2023-04-08T13:19:28;101418.52;;;16.40;51.61
40171;BME280;37650;52.790;18.268;2023-04-08T13:22:49;101417.16;;;16.23;52.93
40171;BME280;37650;52.790;18.268;2023-04-08T13:26:11;101418.62;;;16.22;52.87
40171;BME280;37650;52.790;18.268;2023-04-08T13:29:33;101415.79;;;16.50;53.42
40171;BME280;37650;52.790;18.268;2023-04-08T13:32:54;101413.96;;;16.67;52.83
40171;BME280;37650;52.790;18.268;2023-04-08T13:36:15;101413.30;;;16.46;52.26
40171;BME280;37650;52.790;18.268;2023-04-08T13:39:36;101409.89;;;16.24;53.33
40171;BME280;37650;52.790;18.268;2023-04-08T13:42:58;101410.60;;;16.67;54.72
40171;BME280;37650;52.790;18.268;2023-04-08T13:46:19;101414.18;;;17.18;53.31
40171;BME280;37650;52.790;18.268;2023-04-08T13:49:40;101411.85;;;17.41;53.80
40171;BME280;37650;52.790;18.268;2023-04-08T13:53:02;101412.34;;;17.42;52.01
40171;BME280;37650;52.790;18.268;2023-04-08T13:56:23;101409.13;;;17.24;52.54
40171;BME280;37650;52.790;18.268;2023-04-08T13:59:44;101409.05;;;17.37;53.23
40171;BME280;37650;52.790;18.268;2023-04-08T14:03:05;101406.63;;;17.43;53.00
40171;BME280;37650;52.790;18.268;2023-04-08T14:06:27;101402.66;;;17.37;52.15
40171;BME280;37650;52.790;18.268;2023-04-08T14:09:48;101398.48;;;17.35;52.06
40171;BME280;37650;52.790;18.268;2023-04-08T14:13:09;101396.56;;;17.27;51.55
40171;BME280;37650;52.790;18.268;2023-04-08T14:16:33;101393.42;;;17.01;51.53
40171;BME280;37650;52.790;18.268;2023-04-08T14:19:55;101390.21;;;17.16;53.32
40171;BME280;37650;52.790;18.268;2023-04-08T14:23:16;101385.91;;;17.49;53.39
40171;BME280;37650;52.790;18.268;2023-04-08T14:26:38;101382.15;;;17.72;53.26
40171;BME280;37650;52.790;18.268;2023-04-08T14:29:59;101380.55;;;17.57;51.21
40171;BME280;37650;52.790;18.268;2023-04-08T14:33:21;101377.27;;;17.66;50.30
40171;BME280;37650;52.790;18.268;2023-04-08T14:36:42;101375.97;;;17.39;49.62
40171;BME280;37650;52.790;18.268;2023-04-08T14:40:04;101370.02;;;17.76;50.56
40171;BME280;37650;52.790;18.268;2023-04-08T14:43:25;101369.83;;;19.53;50.60
40171;BME280;37650;52.790;18.268;2023-04-08T14:46:46;101372.70;;;21.31;46.87
40171;BME280;37650;52.790;18.268;2023-04-08T14:50:08;101367.27;;;21.92;44.95
40171;BME280;37650;52.790;18.268;2023-04-08T14:53:29;101366.61;;;22.99;43.91
40171;BME280;37650;52.790;18.268;2023-04-08T14:56:51;101366.02;;;23.72;42.62
40171;BME280;37650;52.790;18.268;2023-04-08T15:00:12;101363.27;;;23.41;41.23
40171;BME280;37650;52.790;18.268;2023-04-08T15:03:34;101364.53;;;21.85;43.06
40171;BME280;37650;52.790;18.268;2023-04-08T15:06:55;101366.42;;;20.48;44.40
40171;BME280;37650;52.790;18.268;2023-04-08T15:10:17;101364.12;;;19.84;44.88
40171;BME280;37650;52.790;18.268;2023-04-08T15:13:38;101362.85;;;19.08;45.17
40171;BME280;37650;52.790;18.268;2023-04-08T15:16:59;101362.77;;;18.52;46.47
40171;BME280;37650;52.790;18.268;2023-04-08T15:20:21;101361.50;;;18.10;45.80
40171;BME280;37650;52.790;18.268;2023-04-08T15:23:42;101367.81;;;17.42;47.19
40171;BME280;37650;52.790;18.268;2023-04-08T15:27:04;101372.36;;;16.85;47.21
40171;BME280;37650;52.790;18.268;2023-04-08T15:30:26;101366.97;;;16.45;48.55
40171;BME280;37650;52.790;18.268;2023-04-08T15:33:47;101365.99;;;16.19;48.70
40171;BME280;37650;52.790;18.268;2023-04-08T15:37:08;101367.95;;;15.88;49.13
40171;BME280;37650;52.790;18.268;2023-04-08T15:40:32;101364.75;;;15.54;49.33
40171;BME280;37650;52.790;18.268;2023-04-08T15:43:54;101367.38;;;15.29;49.91
40171;BME280;37650;52.790;18.268;2023-04-08T15:47:15;101367.92;;;15.07;49.98
40171;BME280;37650;52.790;18.268;2023-04-08T15:50:37;101370.08;;;14.88;50.34
40171;BME280;37650;52.790;18.268;2023-04-08T15:53:59;101366.84;;;14.81;50.94
40171;BME280;37650;52.790;18.268;2023-04-08T15:57:21;101371.20;;;14.68;50.40
40171;BME280;37650;52.790;18.268;2023-04-08T16:00:46;101373.09;;;14.47;51.07
40171;BME280;37650;52.790;18.268;2023-04-08T16:04:09;101375.55;;;14.37;52.06
40171;BME280;37650;52.790;18.268;2023-04-08T16:07:31;101378.89;;;14.38;52.68
40171;BME280;37650;52.790;18.268;2023-04-08T16:10:58;101375.79;;;14.30;53.04
40171;BME280;37650;52.790;18.268;2023-04-08T16:14:21;101379.89;;;14.24;53.77
40171;BME280;37650;52.790;18.268;2023-04-08T16:17:42;101379.98;;;14.17;54.16
40171;BME280;37650;52.790;18.268;2023-04-08T16:21:04;101380.39;;;14.06;54.95
40171;BME280;37650;52.790;18.268;2023-04-08T16:24:28;101373.38;;;13.95;55.45
40171;BME280;37650;52.790;18.268;2023-04-08T16:27:49;101376.66;;;13.86;55.83
40171;BME280;37650;52.790;18.268;2023-04-08T16:31:10;101380.23;;;13.75;56.13
40171;BME280;37650;52.790;18.268;2023-04-08T16:34:32;101384.08;;;13.60;56.63
40171;BME280;37650;52.790;18.268;2023-04-08T16:37:54;101386.83;;;13.47;57.18
40171;BME280;37650;52.790;18.268;2023-04-08T16:41:15;101384.95;;;13.35;57.69
40171;BME280;37650;52.790;18.268;2023-04-08T16:44:37;101384.86;;;13.21;58.47
40171;BME280;37650;52.790;18.268;2023-04-08T16:47:58;101389.60;;;13.03;58.69
40171;BME280;37650;52.790;18.268;2023-04-08T16:51:20;101392.41;;;12.87;59.12
40171;BME280;37650;52.790;18.268;2023-04-08T16:54:41;101396.55;;;12.72;59.58
40171;BME280;37650;52.790;18.268;2023-04-08T16:58:04;101399.89;;;12.55;59.72
40171;BME280;37650;52.790;18.268;2023-04-08T17:01:25;101405.17;;;12.42;60.22
40171;BME280;37650;52.790;18.268;2023-04-08T17:04:49;101407.46;;;12.29;60.71
40171;BME280;37650;52.790;18.268;2023-04-08T17:08:10;101409.81;;;12.14;60.85
40171;BME280;37650;52.790;18.268;2023-04-08T17:11:32;101410.93;;;11.99;61.37
40171;BME280;37650;52.790;18.268;2023-04-08T17:14:54;101410.90;;;11.87;61.97
40171;BME280;37650;52.790;18.268;2023-04-08T17:18:14;101414.31;;;11.77;62.80
40171;BME280;37650;52.790;18.268;2023-04-08T17:21:36;101416.90;;;11.64;63.06
40171;BME280;37650;52.790;18.268;2023-04-08T17:24:58;101423.73;;;11.51;63.50
40171;BME280;37650;52.790;18.268;2023-04-08T17:28:20;101427.54;;;11.39;64.14
40171;BME280;37650;52.790;18.268;2023-04-08T17:31:41;101430.13;;;11.26;64.35
40171;BME280;37650;52.790;18.268;2023-04-08T17:35:04;101432.20;;;11.12;65.14
40171;BME280;37650;52.790;18.268;2023-04-08T17:38:26;101438.13;;;10.98;65.54
40171;BME280;37650;52.790;18.268;2023-04-08T17:41:48;101435.95;;;10.86;66.27
40171;BME280;37650;52.790;18.268;2023-04-08T17:45:10;101438.36;;;10.71;66.67
40171;BME280;37650;52.790;18.268;2023-04-08T17:48:31;101441.09;;;10.59;66.96